^^
Saratoga-Weather Station Historical Data
Daily Summary for November 10, 2020 Units:  Both    English   Metric
Daily Weekly Monthly Yearly Custom
  High: Low: Average:
Temperature: 46.8 °F /  8.2 °C 44.2 °F /  6.8 °C 45.5 °F /  7.5 °C
Dew Point: 45.7 °F /  7.6 °C 43.2 °F /  6.2 °C 44.4 °F /  6.9 °C
Humidity: 97% 96% 96%
Wind Speed: 0mph /  0km/h - 0mph /  0km/h
Wind Gust: 0mph /  0km/h - -
Wind- -
Pressure: 30.2 in /  1024.0 hPa 30.2 in /  1023.4 hPa -
Precipitation: 0.01 in /  0.2 mm    
Historical Graphs
 
 
Tabular Data for November 10, 2020
Time Temperature Dew Point Pressure Wind Wind Speed Wind Gust Humidity Rainfall Rate (Hourly) solar
00:02 46.4 °F /  8 °C 45.3 °F /  7.4 °C 30.2in /  1023.4hPa Calm     96% 0in /  0.0mm 0 W/m2
00:07 46.6 °F /  8.1 °C 45.5 °F /  7.5 °C 30.2in /  1023.4hPa Calm     96% 0in /  0.0mm 0 W/m2
00:12 46.8 °F /  8.2 °C 45.7 °F /  7.6 °C 30.2in /  1023.4hPa Calm     96% 0in /  0.0mm 0 W/m2
00:17 46.8 °F /  8.2 °C 45.7 °F /  7.6 °C 30.2in /  1023.7hPa Calm     96% 0in /  0.0mm 0 W/m2
00:22 46.6 °F /  8.1 °C 45.5 °F /  7.5 °C 30.2in /  1023.4hPa Calm     96% 0in /  0.0mm 0 W/m2
00:27 46.4 °F /  8 °C 45.3 °F /  7.4 °C 30.2in /  1023.7hPa Calm     96% 0in /  0.0mm 0 W/m2
00:32 46.4 °F /  8 °C 45.3 °F /  7.4 °C 30.2in /  1023.7hPa Calm     96% 0in /  0.0mm 0 W/m2
00:37 46.4 °F /  8 °C 45.3 °F /  7.4 °C 30.2in /  1023.7hPa Calm     96% 0in /  0.0mm 0 W/m2
00:42 46.2 °F /  7.9 °C 45.1 °F /  7.3 °C 30.2in /  1023.7hPa Calm     96% 0in /  0.0mm 0 W/m2
00:47 46 °F /  7.8 °C 45 °F /  7.2 °C 30.2in /  1023.7hPa Calm     96% 0in /  0.0mm 0 W/m2
00:52 46 °F /  7.8 °C 45 °F /  7.2 °C 30.2in /  1023.7hPa Calm     96% 0in /  0.0mm 0 W/m2
00:57 46 °F /  7.8 °C 45 °F /  7.2 °C 30.2in /  1023.7hPa Calm     96% 0in /  0.0mm 0 W/m2
01:02 46 °F /  7.8 °C 45 °F /  7.2 °C 30.2in /  1023.7hPa Calm     96% 0in /  0.0mm 0 W/m2
01:07 46.2 °F /  7.9 °C 45.5 °F /  7.5 °C 30.2in /  1023.7hPa Calm     97% 0in /  0.0mm 0 W/m2
01:12 46.2 °F /  7.9 °C 45.5 °F /  7.5 °C 30.2in /  1023.7hPa Calm     97% 0in /  0.0mm 0 W/m2
01:17 46.2 °F /  7.9 °C 45.1 °F /  7.3 °C 30.2in /  1023.7hPa Calm     96% 0in /  0.0mm 0 W/m2
01:22 46.2 °F /  7.9 °C 45.1 °F /  7.3 °C 30.2in /  1023.7hPa Calm     96% 0in /  0.0mm 0 W/m2
01:27 46 °F /  7.8 °C 45 °F /  7.2 °C 30.2in /  1023.7hPa Calm     96% 0in /  0.0mm 0 W/m2
01:32 46 °F /  7.8 °C 45 °F /  7.2 °C 30.2in /  1023.7hPa Calm     96% 0in /  0.0mm 0 W/m2
01:37 46 °F /  7.8 °C 45 °F /  7.2 °C 30.2in /  1023.7hPa Calm     96% 0in /  0.0mm 0 W/m2
01:42 45.9 °F /  7.7 °C 44.8 °F /  7.1 °C 30.2in /  1023.7hPa Calm     96% 0in /  0.0mm 0 W/m2
01:47 45.7 °F /  7.6 °C 44.6 °F /  7 °C 30.2in /  1023.7hPa Calm     96% 0in /  0.0mm 0 W/m2
01:52 45.7 °F /  7.6 °C 44.6 °F /  7 °C 30.2in /  1023.7hPa Calm     96% 0in /  0.0mm 0 W/m2
01:57 45.3 °F /  7.4 °C 44.2 °F /  6.8 °C 30.2in /  1023.7hPa Calm     96% 0in /  0.0mm 0 W/m2
02:02 45.1 °F /  7.3 °C 44.1 °F /  6.7 °C 30.2in /  1023.7hPa Calm     96% 0in /  0.0mm 0 W/m2
02:07 45.1 °F /  7.3 °C 44.1 °F /  6.7 °C 30.2in /  1023.7hPa Calm     96% 0in /  0.0mm 0 W/m2
02:12 45 °F /  7.2 °C 43.9 °F /  6.6 °C 30.2in /  1023.7hPa Calm     96% 0in /  0.0mm 0 W/m2
02:17 45 °F /  7.2 °C 43.9 °F /  6.6 °C 30.2in /  1023.7hPa Calm     96% 0in /  0.0mm 0 W/m2
02:22 45 °F /  7.2 °C 43.9 °F /  6.6 °C 30.2in /  1023.7hPa Calm     96% 0in /  0.0mm 0 W/m2
02:27 45.1 °F /  7.3 °C 44.1 °F /  6.7 °C 30.2in /  1023.7hPa Calm     96% 0in /  0.0mm 0 W/m2
02:32 45.1 °F /  7.3 °C 44.1 °F /  6.7 °C 30.2in /  1023.7hPa Calm     96% 0in /  0.0mm 0 W/m2
02:37 45 °F /  7.2 °C 43.9 °F /  6.6 °C 30.2in /  1023.7hPa Calm     96% 0in /  0.0mm 0 W/m2
02:42 44.8 °F /  7.1 °C 43.7 °F /  6.5 °C 30.2in /  1023.7hPa Calm     96% 0in /  0.0mm 0 W/m2
02:47 45 °F /  7.2 °C 43.9 °F /  6.6 °C 30.2in /  1023.7hPa Calm     96% 0in /  0.0mm 0 W/m2
02:52 45 °F /  7.2 °C 44.2 °F /  6.8 °C 30.2in /  1023.7hPa Calm     97% 0in /  0.0mm 0 W/m2
02:57 45.1 °F /  7.3 °C 44.4 °F /  6.9 °C 30.2in /  1023.7hPa Calm     97% 0in /  0.0mm 0 W/m2
03:02 45.1 °F /  7.3 °C 44.4 °F /  6.9 °C 30.2in /  1023.7hPa Calm     97% 0in /  0.0mm 0 W/m2
03:07 45 °F /  7.2 °C 44.2 °F /  6.8 °C 30.2in /  1023.7hPa Calm     97% 0in /  0.0mm 0 W/m2
03:12 44.8 °F /  7.1 °C 44.1 °F /  6.7 °C 30.2in /  1024.0hPa Calm     97% 0in /  0.0mm 0 W/m2
03:17 44.6 °F /  7 °C 43.9 °F /  6.6 °C 30.2in /  1024.0hPa Calm     97% 0in /  0.0mm 0 W/m2
03:22 44.4 °F /  6.9 °C 43.3 °F /  6.3 °C 30.2in /  1024.0hPa Calm     96% 0in /  0.0mm 0 W/m2
03:27 44.2 °F /  6.8 °C 43.2 °F /  6.2 °C 30.2in /  1024.0hPa Calm     96% 0in /  0.0mm 0 W/m2
03:32 44.4 °F /  6.9 °C 43.3 °F /  6.3 °C 30.2in /  1023.7hPa Calm     96% 0in /  0.0mm 0 W/m2
03:37 44.2 °F /  6.8 °C 43.5 °F /  6.4 °C 30.2in /  1023.7hPa Calm     97% 0in /  0.0mm 0 W/m2
03:42 44.2 °F /  6.8 °C 43.5 °F /  6.4 °C 30.2in /  1023.7hPa Calm     97% 0in /  0.0mm 0 W/m2
03:47 44.6 °F /  7 °C 43.9 °F /  6.6 °C 30.2in /  1023.7hPa Calm     97% 0.01in /  0.2mm 0 W/m2
03:52 45 °F /  7.2 °C 44.2 °F /  6.8 °C 30.2in /  1023.7hPa Calm     97% 0.01in /  0.2mm 0 W/m2
03:57 45.1 °F /  7.3 °C 44.4 °F /  6.9 °C 30.2in /  1024.0hPa Calm     97% 0.01in /  0.2mm 0 W/m2
04:02 45.5 °F /  7.5 °C 44.8 °F /  7.1 °C 30.2in /  1024.0hPa Calm     97% 0.01in /  0.2mm 0 W/m2
04:07 45.7 °F /  7.6 °C 45 °F /  7.2 °C 30.2in /  1023.7hPa Calm     97% 0.01in /  0.2mm 0 W/m2
04:12 45.7 °F /  7.6 °C 45 °F /  7.2 °C 30.2in /  1023.7hPa Calm     97% 0.01in /  0.2mm 0 W/m2
04:17 45.7 °F /  7.6 °C 45 °F /  7.2 °C 30.2in /  1023.7hPa Calm     97% 0.01in /  0.2mm 0 W/m2
04:22 45.7 °F /  7.6 °C 45 °F /  7.2 °C 30.2in /  1023.7hPa Calm     97% 0.01in /  0.2mm 0 W/m2
04:27 45.7 °F /  7.6 °C 45 °F /  7.2 °C 30.2in /  1024.0hPa Calm     97% 0.01in /  0.2mm 0 W/m2
04:32 45.3 °F /  7.4 °C 44.6 °F /  7 °C 30.2in /  1024.0hPa Calm     97% 0.01in /  0.2mm 0 W/m2
04:37 45.1 °F /  7.3 °C 44.4 °F /  6.9 °C 30.2in /  1024.0hPa Calm     97% 0.01in /  0.2mm 0 W/m2
04:42 45 °F /  7.2 °C 44.2 °F /  6.8 °C 30.2in /  1024.0hPa Calm     97% 0.01in /  0.2mm 0 W/m2
04:47 45 °F /  7.2 °C 44.2 °F /  6.8 °C 30.2in /  1024.0hPa Calm     97% 0in /  0.0mm 0 W/m2
04:52 44.8 °F /  7.1 °C 44.1 °F /  6.7 °C 30.2in /  1024.0hPa Calm     97% 0in /  0.0mm 0 W/m2
04:57 44.4 °F /  6.9 °C 43.3 °F /  6.3 °C 30.2in /  1024.0hPa Calm     96% 0in /  0.0mm 0 W/m2
05:02 44.4 °F /  6.9 °C 43.7 °F /  6.5 °C 30.2in /  1024.0hPa Calm     97% 0in /  0.0mm 0 W/m2
05:07 44.2 °F /  6.8 °C 43.5 °F /  6.4 °C 30.2in /  1024.0hPa Calm     97% 0in /  0.0mm 0 W/m2
Juneau County Weather
Compliments of Weather Underground - 2 mb